หน้าหลัก
METAR-TAF:

METAR-TAF

ท่าอากาศยาน :

Uherské Hradiště, สาธารณรัฐเช็ก

ละติจูด: 49-01-46N, ลองจิจูด: 017-26-23E, ความสูง: 177 ม.

การสังเกตสภาพอากาศปัจจุบัน

รายงานได้ทำขึ้นเมื่อ 17 นาทีที่แล้ว ณ เวลา 18:00 UTC
ลม 4 นอตจากตะวันออก/ตะวันออกเฉียงเหนือ
อุณหภูมิ 24°C
ความชื้น 61%
ความกดอากาศ 1010 hPa
ทัศนวิสัย 10 กม. หรือมากกว่า
ไม่มีเมฆต่ำกว่า 1,500 ม. และไม่มีเมฆคิวมูโลนิมบัส

METAR: LKKU 201800Z 06004KT CAVOK 24/16 Q1010

เวลา: 20:17 (18:17 UTC)


TAF: หายไป

สังเกตการณ์สภาพอากาศและพยากรณ์อากาศของสนามบินมากกว่า 4000 แห่ง (รายงาน METAR และ TAF).

สถานีที่ดูได้จะแสดงไว้ด้วยจุดสีเหลืองและสีแดงบนแผนที่.

เลื่อนเมาส์ไปเหนือจุดเพื่อดูชื่อสถานี.

แล้วคลิกเพื่อดูสังเกตการณ์และการพยากรณ์สภาพอากาศ.

ในการเปลี่ยนแผนที่: คลิกที่ปุ่มสีเขียวที่มีกากบาทสีดำเพื่อซูมเข้า; ที่ปุ่มสีเขียวที่มีขีดเพื่อซูมออก; หรือที่ลูกศรสีเขียวเพื่อไปยังแผนที่ที่อยู่ติดกัน.


METAR-TAF: